HKMO

Mombasa Moi International Airport

Mombasa, Kenya
METAR HKMO 220000Z 01003KT 9999 SCT022 26/24 Q1007 NOSIG
Observed Flight Rules
Feb-22 @ 00:00 UTC (5 hours ago) Visual Flight Rules
Wind Visibility Clouds
10° at 3 knots 10,000+ meters
  • Scattered at 2,200' AGL
Temperatures Readings
Current 26°C / 79°F
Dewpoint 24°C / 75°F
Humidity 89%
Altimeter 29.73" Hg
Pressure 1007 hPa
Elevation 55
METAR HKMO 220000Z 01003KT 9999 SCT022 26/24 Q1007 NOSIG
Observed Flight Rules
Feb-22 @ 00:00 UTC
(5 hours ago)
VFR
Wind Visibility
10° at 3 knots 10,000+ meters
Clouds
  • Scattered at 2,200' AGL
Temperature Dewpoint
26°C / 79°F 24°C / 75°F
Humidity Altimeter Pressure
89% 29.73" Hg 1007 hPa